Flugplatz Porta Westfalica

Für EDVY sind keine METAR/TAF Berichte vorhanden.
Es werden die Flugwettermeldungen vom Flugplatz Buckeburg Airport in 16 km Entfernung angezeigt.

Bericht für ETHB

vom 22.01. um 14:20 UTC

Wind 6 kt aus 250°

Sichtweite 3000 m

schwacher Sprühregen

feuchter Dunst

gering bewölkt in 100 ft

aufgebrochene Bewölkung in 200 ft

Temperatur 4.0°C

Taupunkt 3.0°C

Luftfeuchtigkeit 93%

Luftdruck 1034 hPa

ETHB 221420Z 25006KT 3000 -DZ BR FEW001 BKN002 04/03 Q1034 AMB AMB TEMPO YLO

Prognose für ETHB

vom 22.01. um 00:00 UTC

Zwischen 00:00 UTC und 00:00 UTC

Wind 5 kt aus 240°

Sichtweite 3000 m

feuchter Dunst

aufgebrochene Bewölkung in 200 ft


Zwischen 00:00 UTC und 00:00 UTC zeitweise

Wind 7 kt aus 250°

Sichtweite 5000 m

feuchter Dunst

aufgelockert bewölkt in 300 ft

aufgebrochene Bewölkung in 500 ft

TAF ETHB 221421Z 2215/2224 24005KT 3000 BR BKN002 TEMPO 2215/2217 25007KT 5000 BR SCT003 BKN005
Impressum